createdAt,value
2018-08-07T00:00:03.124Z,4.80
2018-08-07T00:01:03.125Z,5.60
2018-08-07T00:02:03.126Z,4.60
2018-08-07T00:03:03.129Z,4.10
2018-08-07T00:04:03.135Z,2.70
2018-08-07T00:05:03.133Z,3.30
2018-08-07T00:06:03.137Z,5.60
2018-08-07T00:07:03.147Z,6.80
2018-08-07T00:08:03.142Z,4.30
2018-08-07T00:09:03.150Z,5.20
2018-08-07T00:10:03.154Z,3.90
2018-08-07T00:11:03.150Z,4.50
2018-08-07T00:12:03.153Z,4.90
2018-08-07T00:13:03.236Z,5.70
2018-08-07T00:14:03.162Z,3.50
2018-08-07T00:15:03.160Z,6.00
2018-08-07T00:16:03.163Z,4.00
2018-08-07T00:17:03.165Z,3.70
2018-08-07T00:18:03.168Z,2.70
2018-08-07T00:19:03.173Z,5.30
2018-08-07T00:20:03.173Z,4.70
2018-08-07T00:21:03.178Z,7.00
2018-08-07T00:22:03.232Z,5.30
2018-08-07T00:23:03.181Z,4.80
2018-08-07T00:24:03.183Z,3.60
2018-08-07T00:25:03.192Z,4.30
2018-08-07T00:26:03.191Z,6.30
2018-08-07T00:27:03.191Z,3.60
2018-08-07T00:28:03.193Z,4.60
2018-08-07T00:29:03.200Z,5.70
2018-08-07T00:30:03.201Z,7.00
2018-08-07T00:31:03.199Z,4.10
2018-08-07T00:32:03.203Z,9.00
2018-08-07T00:33:03.209Z,4.00
2018-08-07T00:34:03.207Z,3.20
2018-08-07T00:35:03.215Z,5.40
2018-08-07T00:36:03.224Z,5.90
2018-08-07T00:37:03.221Z,3.80
2018-08-07T00:38:03.220Z,5.90
2018-08-07T00:39:03.219Z,5.20
2018-08-07T00:40:03.222Z,4.80
2018-08-07T00:41:03.238Z,4.80
2018-08-07T00:42:03.226Z,4.00
2018-08-07T00:43:03.229Z,6.20
2018-08-07T00:44:03.234Z,4.30
2018-08-07T00:45:03.236Z,6.30
2018-08-07T00:46:03.238Z,5.00
2018-08-07T00:47:03.290Z,6.20
2018-08-07T00:48:03.242Z,6.00
2018-08-07T00:49:03.244Z,3.30
2018-08-07T00:50:03.251Z,6.50
2018-08-07T00:51:03.247Z,5.20
2018-08-07T00:52:03.249Z,3.70
2018-08-07T00:53:03.255Z,3.60
2018-08-07T00:54:03.255Z,3.90
2018-08-07T00:55:03.258Z,5.30
2018-08-07T00:56:03.259Z,7.50
2018-08-07T00:57:03.263Z,4.70
2018-08-07T00:58:03.271Z,4.40
2018-08-07T00:59:03.265Z,4.70
2018-08-07T01:00:03.267Z,8.10
2018-08-07T01:01:03.276Z,5.60
2018-08-07T01:02:03.275Z,5.60
2018-08-07T01:03:03.276Z,5.70
2018-08-07T01:04:03.284Z,6.10
2018-08-07T01:05:03.281Z,5.10
2018-08-07T01:06:03.282Z,6.10
2018-08-07T01:07:03.317Z,5.30
2018-08-07T01:08:03.292Z,5.00
2018-08-07T01:09:03.291Z,4.70
2018-08-07T01:10:03.301Z,4.20
2018-08-07T01:11:03.293Z,5.50
2018-08-07T01:12:03.299Z,6.30
2018-08-07T01:13:03.297Z,4.40
2018-08-07T01:14:03.308Z,6.30
2018-08-07T01:15:03.303Z,8.40
2018-08-07T01:16:03.305Z,5.00
2018-08-07T01:17:03.307Z,4.00
2018-08-07T01:18:03.308Z,8.70
2018-08-07T01:19:03.312Z,3.80
2018-08-07T01:20:03.318Z,6.00
2018-08-07T01:21:03.316Z,5.20
2018-08-07T01:22:03.319Z,5.10
2018-08-07T01:23:03.322Z,3.10
2018-08-07T01:24:03.322Z,4.70
2018-08-07T01:25:03.333Z,4.40
2018-08-07T01:26:03.326Z,3.30
2018-08-07T01:27:03.367Z,5.70
2018-08-07T01:28:03.331Z,5.00
2018-08-07T01:29:03.332Z,6.70
2018-08-07T01:30:03.334Z,4.70
2018-08-07T01:31:03.338Z,5.60
2018-08-07T01:32:03.345Z,5.90
2018-08-07T01:33:03.342Z,3.30
2018-08-07T01:34:03.347Z,5.40
2018-08-07T01:35:03.345Z,3.60
2018-08-07T01:36:03.352Z,3.70
2018-08-07T01:37:03.351Z,5.80
2018-08-07T01:38:03.350Z,4.30
2018-08-07T01:39:03.352Z,4.40
2018-08-07T01:40:03.356Z,4.30
2018-08-07T01:41:03.359Z,6.90
2018-08-07T01:42:03.360Z,5.50
2018-08-07T01:43:03.363Z,7.60
2018-08-07T01:44:03.363Z,6.70
2018-08-07T01:45:03.367Z,6.20
2018-08-07T01:46:03.368Z,7.20
2018-08-07T01:47:03.368Z,7.90
2018-08-07T01:48:03.370Z,8.90
2018-08-07T01:49:03.375Z,6.30
2018-08-07T01:50:03.375Z,7.80
2018-08-07T01:51:03.377Z,6.10
2018-08-07T01:52:03.377Z,5.50
2018-08-07T01:53:03.383Z,3.80
2018-08-07T01:54:03.383Z,5.10
2018-08-07T01:55:03.385Z,5.10
2018-08-07T01:56:03.391Z,3.70
2018-08-07T01:57:03.396Z,5.40
2018-08-07T01:58:03.391Z,7.10
2018-08-07T01:59:03.392Z,6.00
2018-08-07T02:00:03.394Z,7.20
2018-08-07T02:01:03.396Z,6.60
2018-08-07T02:02:03.398Z,7.30
2018-08-07T02:03:03.400Z,5.40
2018-08-07T02:04:03.403Z,6.10
2018-08-07T02:05:03.409Z,4.30
2018-08-07T02:06:03.406Z,6.60
2018-08-07T02:07:03.408Z,5.30
2018-08-07T02:08:03.411Z,3.80
2018-08-07T02:09:03.417Z,5.30
2018-08-07T02:10:03.419Z,6.60
2018-08-07T02:11:03.418Z,5.30
2018-08-07T02:12:03.435Z,7.00
2018-08-07T02:13:03.428Z,3.80
2018-08-07T02:14:03.425Z,8.00
2018-08-07T02:15:03.428Z,5.50
2018-08-07T02:16:03.428Z,7.00
2018-08-07T02:17:03.433Z,3.50
2018-08-07T02:18:03.432Z,5.80
2018-08-07T02:19:03.440Z,3.40
2018-08-07T02:20:03.435Z,8.60
2018-08-07T02:21:03.439Z,6.40
2018-08-07T02:22:03.442Z,7.60
2018-08-07T02:23:03.441Z,4.60
2018-08-07T02:24:03.445Z,5.60
2018-08-07T02:25:03.447Z,7.10
2018-08-07T02:26:03.450Z,5.80
2018-08-07T02:27:03.451Z,4.70
2018-08-07T02:28:03.454Z,4.40
2018-08-07T02:29:03.529Z,4.60
2018-08-07T02:30:03.457Z,6.60
2018-08-07T02:31:03.459Z,4.80
2018-08-07T02:32:03.463Z,7.80
2018-08-07T02:33:03.463Z,4.10
2018-08-07T02:34:03.464Z,7.50
2018-08-07T02:35:03.466Z,6.50
2018-08-07T02:36:03.469Z,6.90
2018-08-07T02:37:03.477Z,6.20
2018-08-07T02:38:03.473Z,7.90
2018-08-07T02:39:03.475Z,9.40
2018-08-07T02:40:03.478Z,6.30
2018-08-07T02:41:03.483Z,5.40
2018-08-07T02:42:03.506Z,5.60
2018-08-07T02:43:03.507Z,7.40
2018-08-07T02:44:03.493Z,4.30
2018-08-07T02:45:03.488Z,3.90
2018-08-07T02:46:03.490Z,3.40
2018-08-07T02:47:03.492Z,6.00
2018-08-07T02:48:03.494Z,4.40
2018-08-07T02:49:03.497Z,8.40
2018-08-07T02:50:03.499Z,7.10
2018-08-07T02:51:03.503Z,4.90
2018-08-07T02:52:03.502Z,4.90
2018-08-07T02:53:03.505Z,5.30
2018-08-07T02:54:03.506Z,6.10
2018-08-07T02:55:03.508Z,7.80
2018-08-07T02:56:03.515Z,7.60
2018-08-07T02:57:03.559Z,6.40
2018-08-07T02:58:03.514Z,6.20
2018-08-07T02:59:03.515Z,5.70
2018-08-07T03:00:03.522Z,6.10
2018-08-07T03:01:03.522Z,8.90
2018-08-07T03:02:03.523Z,8.80
2018-08-07T03:03:03.524Z,8.90
2018-08-07T03:04:03.526Z,7.10
2018-08-07T03:05:03.534Z,5.60
2018-08-07T03:06:03.539Z,7.90
2018-08-07T03:07:03.538Z,7.00
2018-08-07T03:08:03.597Z,6.20
2018-08-07T03:09:03.536Z,10.60
2018-08-07T03:10:03.538Z,4.80
2018-08-07T03:11:03.540Z,8.00
2018-08-07T03:12:03.541Z,7.70
2018-08-07T03:13:03.543Z,13.40
2018-08-07T03:14:03.544Z,6.00
2018-08-07T03:15:03.550Z,5.30
2018-08-07T03:16:03.552Z,4.40
2018-08-07T03:17:03.551Z,6.90
2018-08-07T03:18:39.227Z,7.00
2018-08-07T03:19:03.557Z,11.30
2018-08-07T03:20:03.558Z,6.00
2018-08-07T03:21:03.560Z,6.90
2018-08-07T03:22:03.558Z,6.90
2018-08-07T03:23:03.576Z,4.10
2018-08-07T03:24:03.562Z,5.00
2018-08-07T03:25:03.568Z,12.90
2018-08-07T03:26:03.567Z,6.50
2018-08-07T03:27:03.570Z,5.10
2018-08-07T03:28:03.572Z,6.00
2018-08-07T03:29:03.573Z,4.20
2018-08-07T03:30:03.573Z,7.80
2018-08-07T03:31:03.575Z,7.30
2018-08-07T03:32:03.576Z,9.50
2018-08-07T03:33:03.580Z,10.00
2018-08-07T03:34:03.579Z,9.60
2018-08-07T03:35:03.583Z,11.10
2018-08-07T03:36:03.583Z,4.40
2018-08-07T03:37:03.585Z,9.00
2018-08-07T03:38:03.591Z,10.90
2018-08-07T03:39:03.589Z,6.00
2018-08-07T03:40:03.592Z,7.40
2018-08-07T03:41:03.598Z,5.30
2018-08-07T03:42:03.593Z,5.40
2018-08-07T03:43:03.596Z,6.50
2018-08-07T03:44:03.597Z,6.00
2018-08-07T03:45:03.599Z,6.50
2018-08-07T03:46:03.603Z,25.50
2018-08-07T03:47:03.601Z,11.40
2018-08-07T03:48:03.609Z,6.40
2018-08-07T03:49:03.606Z,9.30
2018-08-07T03:50:03.610Z,8.30
2018-08-07T03:51:03.609Z,7.90
2018-08-07T03:52:03.611Z,5.00
2018-08-07T03:53:03.666Z,7.30
2018-08-07T03:54:03.614Z,6.60
2018-08-07T03:55:03.617Z,8.40
2018-08-07T03:56:03.624Z,7.70
2018-08-07T03:57:03.620Z,4.30
2018-08-07T03:58:03.621Z,7.60
2018-08-07T03:59:03.640Z,8.50
2018-08-07T04:00:03.627Z,5.80
2018-08-07T04:01:03.627Z,5.20
2018-08-07T04:02:03.627Z,5.40
2018-08-07T04:03:03.630Z,6.60
2018-08-07T04:04:03.632Z,7.10
2018-08-07T04:05:03.740Z,8.90
2018-08-07T04:06:03.635Z,6.80
2018-08-07T04:07:03.636Z,4.00
2018-08-07T04:08:03.640Z,9.90
2018-08-07T04:09:03.641Z,7.20
2018-08-07T04:10:03.641Z,5.50
2018-08-07T04:11:03.660Z,5.00
2018-08-07T04:12:03.645Z,5.60
2018-08-07T04:13:03.648Z,6.30
2018-08-07T04:14:03.648Z,8.90
2018-08-07T04:15:03.651Z,6.90
2018-08-07T04:16:03.652Z,8.30
2018-08-07T04:17:03.655Z,6.30
2018-08-07T04:18:03.657Z,8.10
2018-08-07T04:19:03.661Z,9.60
2018-08-07T04:20:03.659Z,7.60
2018-08-07T04:21:03.667Z,6.40
2018-08-07T04:22:03.663Z,7.00
2018-08-07T04:23:03.672Z,5.80
2018-08-07T04:24:03.667Z,8.50
2018-08-07T04:25:03.671Z,5.40
2018-08-07T04:26:03.730Z,7.00
2018-08-07T04:27:03.678Z,5.30
2018-08-07T04:28:03.674Z,6.70
2018-08-07T04:29:03.677Z,5.80
2018-08-07T04:30:03.676Z,7.30
2018-08-07T04:31:03.679Z,7.80
2018-08-07T04:32:03.685Z,7.90
2018-08-07T04:33:03.684Z,13.60
2018-08-07T04:34:03.684Z,6.80
2018-08-07T04:35:03.688Z,7.00
2018-08-07T04:36:03.695Z,6.10
2018-08-07T04:37:03.692Z,6.80
2018-08-07T04:38:03.692Z,6.40
2018-08-07T04:39:03.695Z,8.00
2018-08-07T04:40:03.695Z,6.90
2018-08-07T04:41:03.697Z,9.00
2018-08-07T04:42:03.700Z,4.90
2018-08-07T04:43:03.699Z,7.20
2018-08-07T04:44:03.702Z,6.60
2018-08-07T04:45:03.712Z,7.50
2018-08-07T04:46:03.706Z,9.60
2018-08-07T04:47:03.710Z,7.40
2018-08-07T04:48:03.709Z,9.60
2018-08-07T04:49:03.711Z,8.00
2018-08-07T04:50:03.723Z,9.40
2018-08-07T04:51:03.715Z,7.30
2018-08-07T04:52:03.718Z,7.90
2018-08-07T04:53:03.721Z,10.00
2018-08-07T04:54:03.720Z,9.40
2018-08-07T04:55:03.727Z,7.90
2018-08-07T04:56:03.729Z,9.40
2018-08-07T04:57:03.728Z,8.60
2018-08-07T04:58:03.741Z,9.70
2018-08-07T04:59:03.734Z,11.20
2018-08-07T05:00:03.737Z,15.90
2018-08-07T05:01:03.737Z,10.90
2018-08-07T05:02:03.742Z,11.70
2018-08-07T05:03:03.753Z,14.20
2018-08-07T05:04:03.744Z,10.80
2018-08-07T05:05:03.751Z,8.70
2018-08-07T05:06:03.749Z,10.90
2018-08-07T05:07:03.750Z,8.10
2018-08-07T05:08:03.753Z,16.80
2018-08-07T05:09:03.757Z,12.40
2018-08-07T05:10:03.757Z,15.60
2018-08-07T05:11:03.760Z,10.20
2018-08-07T05:12:03.764Z,8.50
2018-08-07T05:13:03.765Z,12.90
2018-08-07T05:14:03.766Z,9.40
2018-08-07T05:15:03.768Z,9.70
2018-08-07T05:16:03.773Z,8.50
2018-08-07T05:17:03.773Z,8.30
2018-08-07T05:18:03.775Z,16.40
2018-08-07T05:19:03.780Z,14.20
2018-08-07T05:20:03.782Z,12.90
2018-08-07T05:21:03.782Z,8.60
2018-08-07T05:22:03.788Z,14.20
2018-08-07T05:23:03.789Z,9.60
2018-08-07T05:24:03.789Z,9.30
2018-08-07T05:25:03.794Z,12.60
2018-08-07T05:26:03.795Z,16.80
2018-08-07T05:27:03.801Z,17.30
2018-08-07T05:28:03.800Z,10.00
2018-08-07T05:29:03.802Z,10.30
2018-08-07T05:30:03.806Z,11.60
2018-08-07T05:31:03.807Z,87.40
2018-08-07T05:32:03.818Z,418.20
2018-08-07T05:33:03.814Z,320.60
2018-08-07T05:34:03.816Z,225.10
2018-08-07T05:35:03.822Z,411.10
2018-08-07T05:36:03.820Z,366.90
2018-08-07T05:37:03.823Z,48.20
2018-08-07T05:38:03.824Z,18.20
2018-08-07T05:39:03.827Z,16.00
2018-08-07T05:40:03.842Z,16.50
2018-08-07T05:41:03.836Z,16.00
2018-08-07T05:42:03.837Z,8.70
2018-08-07T05:43:03.862Z,8.80
2018-08-07T05:44:03.848Z,10.40
2018-08-07T05:45:03.846Z,16.50
2018-08-07T05:46:03.849Z,15.00
2018-08-07T05:47:03.853Z,15.50
2018-08-07T05:48:03.857Z,13.00
2018-08-07T05:49:03.859Z,9.90
2018-08-07T05:50:03.929Z,14.80
2018-08-07T05:51:04.196Z,13.30
2018-08-07T05:52:03.877Z,9.90
2018-08-07T05:53:03.990Z,12.50
2018-08-07T05:54:03.993Z,11.10
2018-08-07T05:55:03.905Z,14.80
2018-08-07T05:56:03.889Z,13.20
2018-08-07T05:57:03.893Z,9.60
2018-08-07T05:58:03.996Z,10.60
2018-08-07T05:59:03.897Z,11.70
2018-08-07T06:00:03.904Z,7.60
2018-08-07T06:01:03.909Z,14.30
2018-08-07T06:02:03.906Z,12.70
2018-08-07T06:03:03.910Z,16.40
2018-08-07T06:04:03.914Z,14.10
2018-08-07T06:05:03.924Z,12.30
2018-08-07T06:06:03.922Z,12.00
2018-08-07T06:07:03.925Z,10.20
2018-08-07T06:08:03.929Z,15.60
2018-08-07T06:09:03.932Z,31.70
2018-08-07T06:10:03.937Z,11.90
2018-08-07T06:11:03.939Z,12.20
2018-08-07T06:12:03.944Z,11.30
2018-08-07T06:13:03.949Z,7.20
2018-08-07T06:14:03.963Z,10.50
2018-08-07T06:15:03.955Z,13.20
2018-08-07T06:16:03.958Z,9.80
2018-08-07T06:17:03.961Z,18.40
2018-08-07T06:18:03.966Z,8.10
2018-08-07T06:19:04.028Z,9.50
2018-08-07T06:20:03.972Z,9.90
2018-08-07T06:21:03.976Z,9.00
2018-08-07T06:22:03.980Z,7.90
2018-08-07T06:23:03.983Z,6.60
2018-08-07T06:24:03.994Z,6.90
2018-08-07T06:25:03.993Z,20.10
2018-08-07T06:26:03.993Z,8.00
2018-08-07T06:27:03.999Z,10.40
2018-08-07T06:28:04.003Z,8.70
2018-08-07T06:29:04.006Z,11.80
2018-08-07T06:30:04.010Z,12.00
2018-08-07T06:31:04.015Z,8.80
2018-08-07T06:32:04.025Z,17.60
2018-08-07T06:33:04.062Z,11.90
2018-08-07T06:34:04.025Z,7.90
2018-08-07T06:35:04.034Z,7.20
2018-08-07T06:36:04.033Z,10.40
2018-08-07T06:37:04.080Z,14.80
2018-08-07T06:38:04.040Z,16.30
2018-08-07T06:39:04.043Z,11.90
2018-08-07T06:40:04.047Z,15.90
2018-08-07T06:41:04.052Z,12.60
2018-08-07T06:42:04.059Z,11.60
2018-08-07T06:43:04.166Z,8.90
2018-08-07T06:44:04.063Z,10.00
2018-08-07T06:45:04.069Z,11.90
2018-08-07T06:46:04.071Z,13.80
2018-08-07T06:47:04.075Z,8.70
2018-08-07T06:48:04.091Z,10.40
2018-08-07T06:49:04.083Z,45.90
2018-08-07T06:50:04.086Z,10.10
2018-08-07T06:51:04.092Z,12.90
2018-08-07T06:52:04.092Z,11.80
2018-08-07T06:53:04.095Z,194.50
2018-08-07T06:54:04.101Z,12.20
2018-08-07T06:55:04.103Z,8.30
2018-08-07T06:56:04.110Z,7.00
2018-08-07T06:57:04.186Z,10.20
2018-08-07T06:58:04.113Z,12.80
2018-08-07T06:59:04.961Z,9.30
2018-08-07T07:00:04.121Z,8.90
2018-08-07T07:01:04.151Z,7.00
2018-08-07T07:02:04.127Z,9.30
2018-08-07T07:03:04.141Z,7.10
2018-08-07T07:04:04.161Z,10.70
2018-08-07T07:05:04.140Z,8.40
2018-08-07T07:06:04.156Z,4.40
2018-08-07T07:07:04.556Z,10.20
2018-08-07T07:08:04.160Z,7.50
2018-08-07T07:09:04.154Z,16.60
2018-08-07T07:10:04.159Z,7.30
2018-08-07T07:11:04.162Z,7.30
2018-08-07T07:12:04.166Z,5.70
2018-08-07T07:13:04.171Z,7.70
2018-08-07T07:14:04.174Z,7.40
2018-08-07T07:15:04.188Z,10.90
2018-08-07T07:16:04.185Z,8.80
2018-08-07T07:17:04.203Z,7.70
2018-08-07T07:18:04.190Z,12.10
2018-08-07T07:19:04.195Z,6.50
2018-08-07T07:20:04.204Z,8.70
2018-08-07T07:21:04.277Z,7.10
2018-08-07T07:22:04.205Z,9.10
2018-08-07T07:23:04.220Z,10.00
2018-08-07T07:24:04.334Z,15.70
2018-08-07T07:25:04.221Z,10.90
2018-08-07T07:26:04.223Z,7.90
2018-08-07T07:27:04.412Z,9.70
2018-08-07T07:28:04.230Z,11.60
2018-08-07T07:29:04.237Z,8.10
2018-08-07T07:30:04.239Z,8.50
2018-08-07T07:31:04.243Z,6.90
2018-08-07T07:32:04.248Z,7.40
2018-08-07T07:33:04.255Z,8.00
2018-08-07T07:34:04.319Z,12.30
2018-08-07T07:35:04.404Z,18.00
2018-08-07T07:36:04.264Z,11.10
2018-08-07T07:37:04.270Z,5.40
2018-08-07T07:38:04.278Z,6.90
2018-08-07T07:39:04.284Z,12.60
2018-08-07T07:40:04.319Z,6.20
2018-08-07T07:41:04.292Z,8.60
2018-08-07T07:42:04.324Z,8.30
2018-08-07T07:43:04.294Z,9.00
2018-08-07T07:44:04.300Z,7.80
2018-08-07T07:45:04.314Z,7.40
2018-08-07T07:46:04.333Z,6.70
2018-08-07T07:47:04.357Z,8.30
2018-08-07T07:48:04.318Z,8.40
2018-08-07T07:49:04.342Z,8.00
2018-08-07T07:50:04.325Z,7.90
2018-08-07T07:51:04.330Z,7.00
2018-08-07T07:52:04.591Z,6.00
2018-08-07T07:53:04.340Z,5.80
2018-08-07T07:54:04.417Z,9.20
2018-08-07T07:55:04.351Z,8.10
2018-08-07T07:56:04.352Z,18.30
2018-08-07T07:57:04.365Z,31.30
2018-08-07T07:58:04.386Z,9.50
2018-08-07T07:59:04.367Z,8.10
2018-08-07T08:00:04.373Z,13.60
2018-08-07T08:01:05.644Z,9.00
2018-08-07T08:02:04.384Z,9.00
2018-08-07T08:03:04.386Z,9.00
2018-08-07T08:04:04.391Z,10.00
2018-08-07T08:05:04.404Z,5.20
2018-08-07T08:06:06.334Z,6.80
2018-08-07T08:07:04.410Z,8.00
2018-08-07T08:08:04.412Z,6.80
2018-08-07T08:09:04.419Z,5.50
2018-08-07T08:10:04.417Z,14.30
2018-08-07T08:11:04.450Z,13.20
2018-08-07T08:12:04.472Z,6.80
2018-08-07T08:13:04.435Z,13.90
2018-08-07T08:14:04.436Z,6.50
2018-08-07T08:15:04.456Z,5.70
2018-08-07T08:16:04.447Z,4.60
2018-08-07T08:17:04.454Z,7.50
2018-08-07T08:18:04.456Z,11.40
2018-08-07T08:19:04.464Z,9.40
2018-08-07T08:20:04.470Z,7.00
2018-08-07T08:21:04.472Z,7.30
2018-08-07T08:22:04.476Z,9.10
2018-08-07T08:23:04.480Z,6.90
2018-08-07T08:24:04.499Z,9.90
2018-08-07T08:25:04.491Z,7.30
2018-08-07T08:26:04.501Z,8.80
2018-08-07T08:27:04.501Z,6.60
2018-08-07T08:28:04.507Z,7.50
2018-08-07T08:29:04.690Z,7.30
2018-08-07T08:30:04.650Z,10.00
2018-08-07T08:31:04.521Z,8.80
2018-08-07T08:32:04.527Z,5.00
2018-08-07T08:33:04.556Z,8.90
2018-08-07T08:34:04.537Z,6.00
2018-08-07T08:35:04.558Z,5.60
2018-08-07T08:36:04.547Z,4.80
2018-08-07T08:37:04.553Z,7.60
2018-08-07T08:38:04.771Z,6.00
2018-08-07T08:39:04.568Z,6.20
2018-08-07T08:40:04.568Z,4.50
2018-08-07T08:41:04.577Z,8.10
2018-08-07T08:42:04.586Z,7.10
2018-08-07T08:43:04.582Z,7.10
2018-08-07T08:44:04.837Z,7.60
2018-08-07T08:45:04.593Z,12.00
2018-08-07T08:46:04.597Z,9.90
2018-08-07T08:47:04.602Z,11.20
2018-08-07T08:48:04.694Z,6.10
2018-08-07T08:49:04.614Z,14.30
2018-08-07T08:50:04.619Z,14.20
2018-08-07T08:51:04.946Z,17.90
2018-08-07T08:52:04.630Z,19.30
2018-08-07T08:53:04.634Z,15.80
2018-08-07T08:54:04.664Z,7.80
2018-08-07T08:55:04.647Z,7.30
2018-08-07T08:56:04.781Z,8.40
2018-08-07T08:57:04.659Z,5.60
2018-08-07T08:58:04.777Z,4.90
2018-08-07T08:59:04.669Z,4.90
2018-08-07T09:00:04.678Z,5.30
2018-08-07T09:01:04.680Z,6.00
2018-08-07T09:02:04.694Z,10.30
2018-08-07T09:03:04.766Z,10.00
2018-08-07T09:04:04.744Z,7.20
2018-08-07T09:05:04.707Z,6.80
2018-08-07T09:06:04.724Z,8.50
2018-08-07T09:07:04.719Z,8.30
2018-08-07T09:08:04.728Z,4.00
2018-08-07T09:09:04.735Z,5.60
2018-08-07T09:10:04.750Z,8.20
2018-08-07T09:11:04.751Z,5.20
2018-08-07T09:12:04.761Z,11.10
2018-08-07T09:13:04.918Z,12.00
2018-08-07T09:14:04.776Z,6.40
2018-08-07T09:15:04.785Z,5.50
2018-08-07T09:16:04.794Z,8.70
2018-08-07T09:17:04.803Z,5.40
2018-08-07T09:18:04.812Z,7.10
2018-08-07T09:19:05.259Z,5.30
2018-08-07T09:20:04.851Z,11.10
2018-08-07T09:21:04.928Z,8.90
2018-08-07T09:22:04.854Z,6.00
2018-08-07T09:23:04.864Z,6.90
2018-08-07T09:24:04.875Z,6.10
2018-08-07T09:25:04.887Z,10.00
2018-08-07T09:26:04.908Z,5.90
2018-08-07T09:27:04.941Z,6.20
2018-08-07T09:28:04.945Z,5.30
2018-08-07T09:29:05.860Z,5.90
2018-08-07T09:30:04.943Z,6.60
2018-08-07T09:31:04.958Z,7.20
2018-08-07T09:32:04.973Z,6.50
2018-08-07T09:33:05.111Z,6.90
2018-08-07T09:34:04.995Z,10.10
2018-08-07T09:35:05.007Z,7.10
2018-08-07T09:36:05.024Z,13.10
2018-08-07T09:37:05.034Z,8.90
2018-08-07T09:38:05.049Z,5.00
2018-08-07T09:39:05.059Z,5.20
2018-08-07T09:40:05.105Z,8.90
2018-08-07T09:41:05.086Z,12.40
2018-08-07T09:42:05.099Z,7.30
2018-08-07T09:43:05.121Z,4.70
2018-08-07T09:44:05.126Z,8.00
2018-08-07T09:45:05.141Z,6.70
2018-08-07T09:46:05.151Z,6.90
2018-08-07T09:47:05.166Z,8.50
2018-08-07T09:48:05.184Z,5.30
2018-08-07T09:49:05.191Z,8.10
2018-08-07T09:50:05.202Z,10.60
2018-08-07T09:51:05.214Z,8.70
2018-08-07T09:52:05.233Z,6.70
2018-08-07T09:53:05.234Z,8.10
2018-08-07T09:54:05.255Z,5.60
2018-08-07T09:55:05.257Z,5.90
2018-08-07T09:56:05.267Z,21.20
2018-08-07T09:57:05.276Z,6.70
2018-08-07T09:58:05.303Z,5.70
2018-08-07T09:59:05.663Z,5.70
2018-08-07T10:00:05.314Z,5.20
2018-08-07T10:01:05.322Z,6.80
2018-08-07T10:02:05.326Z,6.80
2018-08-07T10:03:05.335Z,7.70
2018-08-07T10:04:05.348Z,7.40
2018-08-07T10:05:05.394Z,9.30
2018-08-07T10:06:05.364Z,5.40
2018-08-07T10:07:05.373Z,7.80
2018-08-07T10:08:05.382Z,10.60
2018-08-07T10:09:05.391Z,10.40
2018-08-07T10:10:05.399Z,6.60
2018-08-07T10:11:05.408Z,4.90
2018-08-07T10:12:05.427Z,7.40
2018-08-07T10:13:05.429Z,9.80
2018-08-07T10:14:05.464Z,6.10
2018-08-07T10:15:05.460Z,4.80
2018-08-07T10:16:05.453Z,6.90
2018-08-07T10:17:05.463Z,9.50
2018-08-07T10:18:05.471Z,7.00
2018-08-07T10:19:05.480Z,7.90
2018-08-07T10:20:05.485Z,5.80
2018-08-07T10:21:05.495Z,8.60
2018-08-07T10:22:05.501Z,6.80
2018-08-07T10:23:05.512Z,5.90
2018-08-07T10:24:05.519Z,5.40
2018-08-07T10:25:05.543Z,12.00
2018-08-07T10:26:05.543Z,5.70
2018-08-07T10:27:05.543Z,7.90
2018-08-07T10:28:05.552Z,5.80
2018-08-07T10:29:05.559Z,5.60
2018-08-07T10:30:05.567Z,7.10
2018-08-07T10:31:05.576Z,13.30
2018-08-07T10:32:05.587Z,4.30
2018-08-07T10:33:05.594Z,4.20
2018-08-07T10:34:05.601Z,4.70
2018-08-07T10:35:05.667Z,8.00
2018-08-07T10:36:05.622Z,7.20
2018-08-07T10:37:05.630Z,5.20
2018-08-07T10:38:05.631Z,6.90
2018-08-07T10:39:05.655Z,5.80
2018-08-07T10:40:05.657Z,9.60
2018-08-07T10:41:05.870Z,4.50
2018-08-07T10:42:05.673Z,4.60
2018-08-07T10:43:05.743Z,8.30
2018-08-07T10:44:05.699Z,7.90
2018-08-07T10:45:05.704Z,8.70
2018-08-07T10:46:05.715Z,8.50
2018-08-07T10:47:05.723Z,6.80
2018-08-07T10:48:05.736Z,6.50
2018-08-07T10:49:05.767Z,5.80
2018-08-07T10:50:05.760Z,10.50
2018-08-07T10:51:05.776Z,9.00
2018-08-07T10:52:05.788Z,9.10
2018-08-07T10:53:05.803Z,4.90
2018-08-07T10:54:06.035Z,4.50
2018-08-07T10:55:05.827Z,6.70
2018-08-07T10:56:06.547Z,6.60
2018-08-07T10:57:05.860Z,4.80
2018-08-07T10:58:05.873Z,4.70
2018-08-07T10:59:05.893Z,5.40
2018-08-07T11:00:05.909Z,5.60
2018-08-07T11:01:05.921Z,5.70
2018-08-07T11:02:05.937Z,5.80
2018-08-07T11:03:05.958Z,7.30
2018-08-07T11:04:05.971Z,7.30
2018-08-07T11:05:05.989Z,5.30
2018-08-07T11:06:06.008Z,8.60
2018-08-07T11:07:06.170Z,7.20
2018-08-07T11:08:06.901Z,7.00
2018-08-07T11:09:06.253Z,5.50
2018-08-07T11:10:06.076Z,8.30
2018-08-07T11:11:06.092Z,7.30
2018-08-07T11:12:06.111Z,8.20
2018-08-07T11:13:06.131Z,5.70
2018-08-07T11:14:07.013Z,6.60
2018-08-07T11:15:06.164Z,5.60
2018-08-07T11:16:06.194Z,6.30
2018-08-07T11:17:06.206Z,5.70
2018-08-07T11:18:06.314Z,5.20
2018-08-07T11:19:06.238Z,7.20
2018-08-07T11:20:06.257Z,8.50
2018-08-07T11:21:06.348Z,9.60
2018-08-07T11:22:06.312Z,4.70
2018-08-07T11:23:06.318Z,10.40
2018-08-07T11:24:06.338Z,8.70
2018-08-07T11:25:07.224Z,7.40
2018-08-07T11:26:06.384Z,5.20
2018-08-07T11:27:06.406Z,11.90
2018-08-07T11:28:06.414Z,10.50
2018-08-07T11:29:06.434Z,7.40
2018-08-07T11:30:06.453Z,6.70
2018-08-07T11:31:06.473Z,24.70
2018-08-07T11:32:06.508Z,14.50
2018-08-07T11:33:06.548Z,14.80
2018-08-07T11:34:06.533Z,7.50
2018-08-07T11:35:06.553Z,4.20
2018-08-07T11:36:06.575Z,4.10
2018-08-07T11:37:06.598Z,6.90
2018-08-07T11:38:06.762Z,5.40
2018-08-07T11:39:06.638Z,4.70
2018-08-07T11:40:06.654Z,7.40
2018-08-07T11:41:06.676Z,8.20
2018-08-07T11:42:06.695Z,9.60
2018-08-07T11:43:07.495Z,6.00
2018-08-07T11:44:06.736Z,6.60
2018-08-07T11:45:06.755Z,7.20
2018-08-07T11:46:06.780Z,10.30
2018-08-07T11:47:06.792Z,9.20
2018-08-07T11:48:06.936Z,4.60
2018-08-07T11:49:06.838Z,8.50
2018-08-07T11:50:06.849Z,8.40
2018-08-07T11:51:06.864Z,6.80
2018-08-07T11:52:06.885Z,8.50
2018-08-07T11:53:06.901Z,4.50
2018-08-07T11:54:06.917Z,4.60
2018-08-07T11:55:06.930Z,5.60
2018-08-07T11:56:06.953Z,6.90
2018-08-07T11:57:06.964Z,5.80
2018-08-07T11:58:06.975Z,8.40
2018-08-07T11:59:07.249Z,10.40
2018-08-07T12:00:07.026Z,8.40
2018-08-07T12:01:07.018Z,16.50
2018-08-07T12:02:07.032Z,16.50
2018-08-07T12:03:07.092Z,8.40
2018-08-07T12:04:07.058Z,9.70
2018-08-07T12:05:07.074Z,6.50
2018-08-07T12:06:07.084Z,5.00
2018-08-07T12:07:07.246Z,7.00
2018-08-07T12:08:07.205Z,11.40
2018-08-07T12:09:07.132Z,9.90
2018-08-07T12:10:07.139Z,5.10
2018-08-07T12:11:07.147Z,5.50
2018-08-07T12:12:07.160Z,7.40
2018-08-07T12:13:07.168Z,20.60
2018-08-07T12:14:07.178Z,7.40
2018-08-07T12:15:07.189Z,4.50
2018-08-07T12:16:07.244Z,5.90
2018-08-07T12:17:07.248Z,5.30
2018-08-07T12:18:07.223Z,6.30
2018-08-07T12:19:07.243Z,5.70
2018-08-07T12:20:07.363Z,4.20
2018-08-07T12:21:07.254Z,4.40
2018-08-07T12:22:07.270Z,5.60
2018-08-07T12:23:07.276Z,8.60
2018-08-07T12:24:07.292Z,7.00
2018-08-07T12:25:07.308Z,6.10
2018-08-07T12:26:07.307Z,5.40
2018-08-07T12:27:07.319Z,4.30
2018-08-07T12:28:08.360Z,7.10
2018-08-07T12:29:07.420Z,8.80
2018-08-07T12:30:07.347Z,6.20
2018-08-07T12:31:07.519Z,7.90
2018-08-07T12:32:07.369Z,11.00
2018-08-07T12:33:07.388Z,5.70
2018-08-07T12:34:07.395Z,6.10
2018-08-07T12:35:07.436Z,6.40
2018-08-07T12:36:07.406Z,13.10
2018-08-07T12:37:07.422Z,5.20
2018-08-07T12:38:07.428Z,9.70
2018-08-07T12:39:07.436Z,6.80
2018-08-07T12:40:07.450Z,4.10
2018-08-07T12:41:07.487Z,4.80
2018-08-07T12:42:07.467Z,4.80
2018-08-07T12:43:07.573Z,53.10
2018-08-07T12:44:07.493Z,63.20
2018-08-07T12:45:07.519Z,16.20
2018-08-07T12:46:07.525Z,9.60
2018-08-07T12:47:07.518Z,11.10
2018-08-07T12:48:07.522Z,6.30
2018-08-07T12:49:07.581Z,4.40
2018-08-07T12:50:07.549Z,11.50
2018-08-07T12:51:07.554Z,6.90
2018-08-07T12:52:07.563Z,11.50
2018-08-07T12:53:07.588Z,23.30
2018-08-07T12:54:07.580Z,36.50
2018-08-07T12:55:07.591Z,295.70
2018-08-07T12:56:07.597Z,121.40
2018-08-07T12:57:07.615Z,289.40
2018-08-07T12:58:07.621Z,91.40
2018-08-07T12:59:07.628Z,256.50
2018-08-07T13:00:09.377Z,163.80
2018-08-07T13:01:07.651Z,196.90
2018-08-07T13:02:07.654Z,247.70
2018-08-07T13:03:07.663Z,156.00
2018-08-07T13:04:07.836Z,45.50
2018-08-07T13:05:07.680Z,69.40
2018-08-07T13:06:07.697Z,28.70
2018-08-07T13:07:07.699Z,29.20
2018-08-07T13:08:08.017Z,15.60
2018-08-07T13:09:07.717Z,16.40
2018-08-07T13:10:07.726Z,20.30
2018-08-07T13:11:07.736Z,12.70